createdAt,value
2017-04-25T17:37:11.982Z,24.05
2017-04-25T17:38:14.029Z,24.08
2017-04-25T17:39:09.643Z,24.32
2017-04-25T17:40:11.610Z,24.30
2017-04-25T17:41:13.695Z,24.23
2017-04-25T17:42:15.754Z,24.05
2017-04-25T17:43:17.732Z,23.95
2017-04-25T17:44:19.495Z,23.86
2017-04-25T17:45:21.306Z,23.86
2017-04-25T17:46:23.058Z,23.84
2017-04-25T17:47:24.803Z,23.84
2017-04-25T17:48:26.566Z,23.84
2017-04-25T17:49:28.280Z,23.81
2017-04-25T17:50:30.074Z,23.76
2017-04-25T17:51:31.800Z,23.80
2017-04-25T17:52:33.574Z,23.81
2017-04-25T17:53:35.443Z,23.77
2017-04-25T17:54:37.232Z,23.74
2017-04-25T17:55:39.042Z,23.74
2017-04-25T17:56:40.860Z,23.62
2017-04-25T17:57:42.595Z,23.73
2017-04-25T17:58:44.353Z,23.73
2017-04-25T17:59:46.181Z,23.74
2017-04-25T18:00:48.242Z,23.63
2017-04-25T18:01:50.290Z,23.59
2017-04-25T18:02:52.438Z,23.56
2017-04-25T18:03:54.521Z,23.47
2017-04-25T18:04:56.589Z,23.47
2017-04-25T18:05:58.581Z,23.46
2017-04-25T18:07:00.357Z,23.44
2017-04-25T18:08:02.365Z,23.44
2017-04-25T18:09:04.411Z,23.36
2017-04-25T18:10:06.469Z,23.32
2017-04-25T18:11:08.251Z,23.32
2017-04-25T18:12:10.242Z,-15.92
2017-04-25T18:13:12.232Z,-15.92
2017-04-25T18:14:14.264Z,-15.92
2017-04-25T18:15:16.369Z,-15.92
2017-04-25T18:16:18.445Z,-15.92
2017-04-25T18:17:20.510Z,-15.92
2017-04-25T18:18:22.343Z,-15.92
2017-04-25T18:19:24.482Z,-15.92
2017-04-25T18:20:26.513Z,-15.92
2017-04-25T18:21:28.650Z,-15.92
2017-04-25T18:22:30.452Z,-15.92
2017-04-25T18:23:32.528Z,-15.92
2017-04-25T18:24:34.621Z,-15.92
2017-04-25T18:25:36.651Z,-15.92
2017-04-25T18:26:38.448Z,-15.92
2017-04-25T18:27:40.586Z,-15.92
2017-04-25T18:28:42.723Z,-15.92
2017-04-25T18:29:45.255Z,-15.92
2017-04-25T18:30:47.215Z,-15.92
2017-04-25T18:31:49.234Z,-15.92
2017-04-25T18:32:51.283Z,-15.92
2017-04-25T18:33:53.334Z,-15.92
2017-04-25T18:34:55.501Z,-15.92
2017-04-25T18:35:57.302Z,-15.92
2017-04-25T18:36:59.460Z,-15.92
2017-04-25T18:38:01.531Z,-15.92
2017-04-25T18:39:03.565Z,-15.92
2017-04-25T18:40:05.384Z,-15.92
2017-04-25T18:41:07.478Z,-15.92
2017-04-25T18:42:09.822Z,-15.92
2017-04-25T18:43:11.900Z,-15.92
2017-04-25T18:44:13.972Z,-15.92
2017-04-25T18:45:15.995Z,-15.92
2017-04-25T18:46:18.137Z,-15.92
2017-04-25T18:47:20.180Z,-15.92
2017-04-25T18:48:22.162Z,-15.92
2017-04-25T18:49:24.322Z,-15.92
2017-04-25T18:50:26.834Z,-15.92
2017-04-25T18:51:28.924Z,-15.92
2017-04-25T18:52:31.043Z,-15.92
2017-04-25T18:53:33.086Z,-15.92
2017-04-25T18:54:35.161Z,-15.92
2017-04-25T18:55:37.122Z,-15.92
2017-04-25T18:56:39.202Z,-15.92
2017-04-25T18:57:41.289Z,-15.92
2017-04-25T18:58:43.262Z,-15.92
2017-04-25T18:59:45.303Z,-15.92
2017-04-25T19:01:37.934Z,-15.92
2017-04-25T19:02:39.724Z,-15.92
2017-04-25T19:49:47.869Z,23.12
2017-04-25T19:50:49.810Z,23.50
